Time,TemperatureF,DewpointF,PressureIn,WindDirection,WindDirectionDegrees,WindSpeedMPH,WindSpeedGustMPH,Humidity,HourlyPrecipIn,Conditions,Clouds,dailyrainin,SoftwareType,DateUTC
2013-01-11 00:02:00,50.0,50.0,29.85,SSE,163,2.0,6.0,100,61.73,,,-99.99,,2013-01-11 06:02:00,
2013-01-11 00:12:00,50.0,50.0,29.85,SSE,163,2.0,6.0,100,61.73,,,-99.99,,2013-01-11 06:12:00,
2013-01-11 00:22:00,52.0,52.0,29.83,SW,221,3.0,6.0,100,61.73,,,-99.99,,2013-01-11 06:22:00,
2013-01-11 00:32:00,52.0,52.0,29.82,South,187,3.0,8.0,100,61.76,,,-99.99,,2013-01-11 06:32:00,
2013-01-11 00:42:00,52.0,52.0,29.82,South,187,3.0,8.0,100,61.76,,,-99.99,,2013-01-11 06:42:00,
2013-01-11 00:52:00,53.0,53.0,29.81,SE,138,4.0,8.0,100,61.82,,,-99.99,,2013-01-11 06:52:00,
2013-01-11 01:02:00,53.0,53.0,29.80,SSW,198,3.0,5.0,100,61.82,,,-99.99,,2013-01-11 07:02:00,
2013-01-11 01:12:00,54.0,54.0,29.80,SW,217,4.0,11.0,100,61.83,,,-99.99,,2013-01-11 07:12:00,
2013-01-11 01:22:00,54.0,54.0,29.80,SW,217,4.0,11.0,100,61.83,,,-99.99,,2013-01-11 07:22:00,
2013-01-11 01:32:00,54.0,54.0,29.79,SSW,212,4.0,10.0,100,61.85,,,-99.99,,2013-01-11 07:32:00,
2013-01-11 01:42:00,54.0,54.0,29.79,WSW,250,5.0,14.0,100,61.86,,,-99.99,,2013-01-11 07:42:00,
2013-01-11 01:52:00,54.0,54.0,29.79,WSW,250,5.0,14.0,100,61.86,,,-99.99,,2013-01-11 07:52:00,
2013-01-11 02:02:00,54.0,54.0,29.79,SW,225,4.0,8.0,100,61.87,,,-99.99,,2013-01-11 08:02:00,
2013-01-11 02:12:00,54.0,54.0,29.79,SW,222,4.0,8.0,100,61.91,,,-99.99,,2013-01-11 08:12:00,
2013-01-11 02:22:00,54.0,54.0,29.79,SW,222,4.0,8.0,100,61.91,,,-99.99,,2013-01-11 08:22:00,
2013-01-11 02:32:00,55.0,55.0,29.78,SW,235,4.0,8.0,100,61.92,,,-99.99,,2013-01-11 08:32:00,
2013-01-11 02:42:00,55.0,55.0,29.78,SW,235,4.0,8.0,100,61.92,,,-99.99,,2013-01-11 08:42:00,
2013-01-11 02:52:00,55.0,55.0,29.78,WSW,257,3.0,8.0,100,61.92,,,-99.99,,2013-01-11 08:52:00,
2013-01-11 03:02:00,55.0,55.0,29.79,SSE,163,3.0,6.0,100,61.93,,,-99.99,,2013-01-11 09:02:00,
2013-01-11 03:12:00,55.0,55.0,29.79,SSE,163,3.0,6.0,100,61.93,,,-99.99,,2013-01-11 09:12:00,
2013-01-11 03:22:00,56.0,56.0,29.76,WNW,291,3.0,10.0,100,61.93,,,-99.99,,2013-01-11 09:22:00,
2013-01-11 03:32:00,56.0,56.0,29.73,NE,53,4.0,10.0,100,61.94,,,-99.99,,2013-01-11 09:32:00,
2013-01-11 03:42:00,56.0,56.0,29.73,NE,53,4.0,10.0,100,61.94,,,-99.99,,2013-01-11 09:42:00,
2013-01-11 03:52:00,56.0,56.0,29.70,NNE,25,2.0,6.0,100,61.94,,,-99.99,,2013-01-11 09:52:00,
2013-01-11 04:02:00,56.0,56.0,29.71,SSW,211,3.0,8.0,100,61.94,,,-99.99,,2013-01-11 10:02:00,
2013-01-11 04:12:00,56.0,56.0,29.71,SSW,211,3.0,8.0,100,61.94,,,-99.99,,2013-01-11 10:12:00,
2013-01-11 04:22:00,56.0,56.0,29.72,WSW,252,3.0,12.0,99,61.94,,,-99.99,,2013-01-11 10:22:00,
2013-01-11 04:32:00,55.0,55.0,29.71,SSW,194,3.0,10.0,99,61.94,,,-99.99,,2013-01-11 10:32:00,
2013-01-11 04:42:00,55.0,55.0,29.71,SSW,194,3.0,10.0,99,61.94,,,-99.99,,2013-01-11 10:42:00,
2013-01-11 04:52:00,55.0,55.0,29.70,WSW,245,3.0,9.0,99,61.94,,,-99.99,,2013-01-11 10:52:00,
2013-01-11 05:02:00,55.0,55.0,29.71,West,262,2.0,7.0,99,61.94,,,-99.99,,2013-01-11 11:02:00,
2013-01-11 05:12:00,55.0,55.0,29.71,West,262,2.0,7.0,99,61.94,,,-99.99,,2013-01-11 11:12:00,
2013-01-11 05:22:00,55.0,55.0,29.72,WSW,252,3.0,7.0,99,61.94,,,-99.99,,2013-01-11 11:22:00,
2013-01-11 05:32:00,55.0,55.0,29.74,SW,215,3.0,9.0,99,61.94,,,-99.99,,2013-01-11 11:32:00,
2013-01-11 05:42:00,55.0,55.0,29.74,SW,215,3.0,9.0,99,61.94,,,-99.99,,2013-01-11 11:42:00,
2013-01-11 05:53:00,55.0,55.0,29.74,WSW,252,3.0,8.0,99,61.94,,,-99.99,,2013-01-11 11:53:00,
2013-01-11 06:02:00,55.0,55.0,29.74,West,267,3.0,10.0,99,61.94,,,-99.99,,2013-01-11 12:02:00,
2013-01-11 06:12:00,55.0,55.0,29.74,West,267,3.0,10.0,99,61.94,,,-99.99,,2013-01-11 12:12:00,
2013-01-11 06:22:00,55.0,55.0,29.75,West,281,2.0,9.0,99,61.94,,,-99.99,,2013-01-11 12:22:00,
2013-01-11 06:32:00,55.0,55.0,29.76,WNW,294,2.0,8.0,99,61.94,,,-99.99,,2013-01-11 12:32:00,
2013-01-11 06:42:00,55.0,55.0,29.76,WNW,294,2.0,8.0,99,61.94,,,-99.99,,2013-01-11 12:42:00,
2013-01-11 06:53:00,55.0,55.0,29.77,SW,229,2.0,9.0,99,61.94,,,-99.99,,2013-01-11 12:53:00,
2013-01-11 07:02:00,55.0,54.0,29.78,West,262,4.0,9.0,98,61.94,,,-99.99,,2013-01-11 13:02:00,
2013-01-11 07:12:00,55.0,54.0,29.78,West,262,4.0,9.0,98,61.94,,,-99.99,,2013-01-11 13:12:00,
2013-01-11 07:22:00,54.0,53.0,29.78,WSW,253,4.0,10.0,97,61.94,,,-99.99,,2013-01-11 13:22:00,
2013-01-11 07:33:00,54.0,53.0,29.78,WNW,288,4.0,10.0,95,61.94,,,-99.99,,2013-01-11 13:33:00,
2013-01-11 07:42:00,54.0,53.0,29.78,WNW,288,4.0,10.0,95,61.94,,,-99.99,,2013-01-11 13:42:00,
2013-01-11 07:53:00,53.0,52.0,29.78,NW,307,2.0,8.0,96,61.94,,,-99.99,,2013-01-11 13:53:00,
2013-01-11 08:03:00,52.0,51.0,29.80,WNW,291,2.0,8.0,96,61.94,,,-99.99,,2013-01-11 14:03:00,
2013-01-11 08:12:00,52.0,51.0,29.81,SW,232,2.0,5.0,96,61.94,,,-99.99,,2013-01-11 14:12:00,
2013-01-11 08:22:00,52.0,51.0,29.81,SW,232,2.0,5.0,96,61.94,,,-99.99,,2013-01-11 14:22:00,
2013-01-11 08:33:00,53.0,52.0,29.81,WSW,240,2.0,11.0,97,61.94,,,-99.99,,2013-01-11 14:33:00,
2013-01-11 08:42:00,53.0,52.0,29.81,West,277,4.0,9.0,96,61.94,,,-99.99,,2013-01-11 14:42:00,
2013-01-11 08:53:00,53.0,52.0,29.81,West,277,4.0,9.0,96,61.94,,,-99.99,,2013-01-11 14:53:00,
2013-01-11 09:03:00,53.0,52.0,29.81,WNW,290,4.0,10.0,96,61.94,,,-99.99,,2013-01-11 15:03:00,
2013-01-11 09:12:00,53.0,51.0,29.82,WNW,293,5.0,13.0,94,61.94,,,-99.99,,2013-01-11 15:12:00,
2013-01-11 09:23:00,53.0,51.0,29.82,WNW,293,5.0,13.0,94,61.94,,,-99.99,,2013-01-11 15:23:00,
2013-01-11 09:32:00,54.0,52.0,29.82,WNW,294,4.0,9.0,93,61.94,,,-99.99,,2013-01-11 15:32:00,
2013-01-11 09:42:00,54.0,52.0,29.82,WNW,294,4.0,9.0,93,61.94,,,-99.99,,2013-01-11 15:42:00,
2013-01-11 09:53:00,54.0,51.0,29.82,WNW,284,6.0,16.0,90,61.94,,,-99.99,,2013-01-11 15:53:00,
2013-01-11 10:02:00,54.0,51.0,29.83,West,262,5.0,12.0,89,61.94,,,-99.99,,2013-01-11 16:02:00,
2013-01-11 10:12:00,54.0,49.0,29.83,WNW,287,7.0,18.0,84,61.94,,,-99.99,,2013-01-11 16:12:00,
2013-01-11 10:22:00,54.0,49.0,29.83,WNW,287,7.0,18.0,84,61.94,,,-99.99,,2013-01-11 16:22:00,
2013-01-11 10:32:00,53.0,49.0,29.83,West,270,6.0,14.0,87,61.94,,,-99.99,,2013-01-11 16:32:00,
2013-01-11 10:42:00,54.0,51.0,29.83,WNW,294,5.0,12.0,88,61.94,,,-99.99,,2013-01-11 16:42:00,
2013-01-11 10:53:00,54.0,51.0,29.83,WNW,294,5.0,12.0,88,61.94,,,-99.99,,2013-01-11 16:53:00,
2013-01-11 11:03:00,54.0,50.0,29.83,West,267,6.0,16.0,85,61.94,,,-99.99,,2013-01-11 17:03:00,
2013-01-11 11:12:00,54.0,50.0,29.83,West,267,6.0,16.0,85,61.94,,,-99.99,,2013-01-11 17:12:00,
2013-01-11 11:22:00,54.0,50.0,29.83,West,267,6.0,16.0,85,61.94,,,-99.99,,2013-01-11 17:22:00,
2013-01-11 11:33:00,54.0,50.0,29.82,WSW,249,6.0,12.0,86,61.94,,,-99.99,,2013-01-11 17:33:00,
2013-01-11 11:43:00,54.0,50.0,29.82,WSW,249,6.0,12.0,86,61.94,,,-99.99,,2013-01-11 17:43:00,
2013-01-11 11:53:00,54.0,50.0,29.80,WSW,242,5.0,13.0,85,61.94,,,-99.99,,2013-01-11 17:53:00,
2013-01-11 12:03:00,55.0,50.0,29.80,SSW,207,5.0,11.0,84,61.94,,,-99.99,,2013-01-11 18:03:00,
2013-01-11 12:12:00,55.0,50.0,29.80,SSW,207,5.0,11.0,84,61.94,,,-99.99,,2013-01-11 18:12:00,
2013-01-11 12:23:00,55.0,50.0,29.80,WNW,300,6.0,14.0,83,61.94,,,-99.99,,2013-01-11 18:23:00,
2013-01-11 12:32:00,55.0,50.0,29.80,WSW,248,5.0,11.0,83,61.94,,,-99.99,,2013-01-11 18:32:00,
2013-01-11 12:43:00,55.0,50.0,29.80,WSW,248,5.0,11.0,83,61.94,,,-99.99,,2013-01-11 18:43:00,
2013-01-11 12:53:00,55.0,50.0,29.79,WNW,287,5.0,12.0,82,61.94,,,-99.99,,2013-01-11 18:53:00,
2013-01-11 13:02:00,56.0,50.0,29.79,West,266,4.0,10.0,81,61.94,,,-99.99,,2013-01-11 19:02:00,
2013-01-11 13:12:00,56.0,50.0,29.79,West,266,4.0,10.0,81,61.94,,,-99.99,,2013-01-11 19:12:00,
2013-01-11 13:22:00,56.0,50.0,29.79,NW,305,4.0,13.0,80,61.94,,,-99.99,,2013-01-11 19:22:00,
2013-01-11 13:32:00,57.0,51.0,29.78,West,270,4.0,11.0,80,61.94,,,-99.99,,2013-01-11 19:32:00,
2013-01-11 13:43:00,57.0,51.0,29.78,West,270,4.0,11.0,80,61.94,,,-99.99,,2013-01-11 19:43:00,
2013-01-11 13:53:00,56.0,50.0,29.78,West,270,4.0,9.0,80,61.94,,,-99.99,,2013-01-11 19:53:00,
2013-01-11 14:03:00,57.0,51.0,29.79,WSW,249,3.0,7.0,79,61.94,,,-99.99,,2013-01-11 20:03:00,
2013-01-11 14:12:00,57.0,51.0,29.79,WSW,249,3.0,7.0,79,61.94,,,-99.99,,2013-01-11 20:12:00,
2013-01-11 14:22:00,57.0,51.0,29.78,SW,229,4.0,12.0,81,61.94,,,-99.99,,2013-01-11 20:22:00,
2013-01-11 14:33:00,57.0,51.0,29.79,West,267,3.0,11.0,79,61.94,,,-99.99,,2013-01-11 20:33:00,
2013-01-11 14:43:00,57.0,51.0,29.79,West,267,3.0,11.0,79,61.94,,,-99.99,,2013-01-11 20:43:00,
2013-01-11 14:53:00,57.0,51.0,29.79,SW,235,5.0,11.0,79,61.94,,,-99.99,,2013-01-11 20:53:00,
2013-01-11 15:03:00,57.0,51.0,29.78,WSW,239,4.0,10.0,79,61.94,,,-99.99,,2013-01-11 21:03:00,
2013-01-11 15:12:00,57.0,50.0,29.78,SW,235,4.0,8.0,78,61.94,,,-99.99,,2013-01-11 21:12:00,
2013-01-11 15:23:00,57.0,50.0,29.78,SW,235,4.0,8.0,78,61.94,,,-99.99,,2013-01-11 21:23:00,
2013-01-11 15:32:00,57.0,50.0,29.79,West,281,4.0,10.0,78,61.94,,,-99.99,,2013-01-11 21:32:00,
2013-01-11 15:42:00,57.0,50.0,29.79,West,281,4.0,10.0,78,61.94,,,-99.99,,2013-01-11 21:42:00,
2013-01-11 15:53:00,57.0,50.0,29.80,SW,224,4.0,10.0,78,61.94,,,-99.99,,2013-01-11 21:53:00,
2013-01-11 16:02:00,56.0,51.0,29.80,WSW,252,3.0,7.0,82,61.94,,,-99.99,,2013-01-11 22:02:00,
2013-01-11 16:12:00,56.0,51.0,29.79,SSW,203,3.0,7.0,83,61.94,,,-99.99,,2013-01-11 22:12:00,
2013-01-11 16:22:00,56.0,51.0,29.79,SSW,203,3.0,7.0,83,61.94,,,-99.99,,2013-01-11 22:22:00,
2013-01-11 16:33:00,56.0,51.0,29.78,NNE,18,4.0,10.0,83,61.94,,,-99.99,,2013-01-11 22:33:00,
2013-01-11 16:42:00,56.0,51.0,29.78,NNE,18,4.0,10.0,83,61.94,,,-99.99,,2013-01-11 22:42:00,
2013-01-11 16:53:00,55.0,50.0,29.79,SSW,211,2.0,6.0,84,61.94,,,-99.99,,2013-01-11 22:53:00,
2013-01-11 17:02:00,55.0,51.0,29.79,West,271,3.0,8.0,85,61.94,,,-99.99,,2013-01-11 23:02:00,
2013-01-11 17:12:00,55.0,51.0,29.79,WSW,246,4.0,7.0,86,61.94,,,-99.99,,2013-01-11 23:12:00,
2013-01-11 17:22:00,55.0,51.0,29.79,WSW,246,4.0,7.0,86,61.94,,,-99.99,,2013-01-11 23:22:00,
2013-01-11 17:32:00,55.0,51.0,29.79,WNW,285,3.0,10.0,86,61.94,,,-99.99,,2013-01-11 23:32:00,
2013-01-11 17:42:00,55.0,51.0,29.79,WNW,285,3.0,10.0,86,61.94,,,-99.99,,2013-01-11 23:42:00,
2013-01-11 17:53:00,54.0,51.0,29.79,SW,222,3.0,9.0,88,61.94,,,-99.99,,2013-01-11 23:53:00,
2013-01-11 18:02:00,54.0,51.0,29.78,SW,214,3.0,11.0,89,61.94,,,-99.99,,2013-01-12 00:02:00,
2013-01-11 18:12:00,53.0,50.0,29.78,SSW,201,2.0,5.0,90,61.94,,,-99.99,,2013-01-12 00:12:00,
2013-01-11 18:22:00,53.0,50.0,29.78,SSW,201,2.0,5.0,90,61.94,,,-99.99,,2013-01-12 00:22:00,
2013-01-11 18:32:00,53.0,50.0,29.78,SW,235,3.0,9.0,91,61.94,,,-99.99,,2013-01-12 00:32:00,
2013-01-11 18:42:00,53.0,50.0,29.78,SW,235,3.0,9.0,91,61.94,,,-99.99,,2013-01-12 00:42:00,
2013-01-11 18:53:00,53.0,50.0,29.78,WNW,302,3.0,7.0,91,61.94,,,-99.99,,2013-01-12 00:53:00,
2013-01-11 19:02:00,53.0,50.0,29.78,WNW,298,4.0,10.0,91,61.94,,,-99.99,,2013-01-12 01:02:00,
2013-01-11 19:12:00,53.0,50.0,29.79,NNW,328,3.0,7.0,90,61.94,,,-99.99,,2013-01-12 01:12:00,
2013-01-11 19:22:00,53.0,50.0,29.79,NNW,328,3.0,7.0,90,61.94,,,-99.99,,2013-01-12 01:22:00,
2013-01-11 19:32:00,54.0,51.0,29.79,SW,226,4.0,11.0,89,61.94,,,-99.99,,2013-01-12 01:32:00,
2013-01-11 19:42:00,54.0,51.0,29.79,SW,226,4.0,11.0,89,61.94,,,-99.99,,2013-01-12 01:42:00,
2013-01-11 19:52:00,54.0,51.0,29.79,WSW,250,4.0,8.0,89,61.94,,,-99.99,,2013-01-12 01:52:00,
2013-01-11 20:02:00,54.0,51.0,29.79,NW,309,5.0,14.0,89,61.94,,,-99.99,,2013-01-12 02:02:00,
2013-01-11 20:12:00,54.0,51.0,29.79,NW,309,5.0,14.0,89,61.94,,,-99.99,,2013-01-12 02:12:00,
2013-01-11 20:22:00,54.0,51.0,29.78,West,260,4.0,10.0,89,61.94,,,-99.99,,2013-01-12 02:22:00,
2013-01-11 20:32:00,54.0,51.0,29.79,WSW,248,4.0,12.0,89,61.94,,,-99.99,,2013-01-12 02:32:00,
2013-01-11 20:42:00,54.0,51.0,29.79,WSW,248,4.0,12.0,89,61.94,,,-99.99,,2013-01-12 02:42:00,
2013-01-11 20:53:00,54.0,51.0,29.79,North,359,4.0,9.0,89,61.94,,,-99.99,,2013-01-12 02:53:00,
2013-01-11 21:02:00,54.0,51.0,29.79,West,269,4.0,12.0,88,61.94,,,-99.99,,2013-01-12 03:02:00,
2013-01-11 21:12:00,54.0,51.0,29.79,West,269,4.0,12.0,88,61.94,,,-99.99,,2013-01-12 03:12:00,
2013-01-11 21:22:00,54.0,50.0,29.78,SW,224,5.0,11.0,87,61.94,,,-99.99,,2013-01-12 03:22:00,
2013-01-11 21:32:00,54.0,51.0,29.78,WSW,240,4.0,11.0,88,61.94,,,-99.99,,2013-01-12 03:32:00,
2013-01-11 21:42:00,54.0,51.0,29.78,WSW,240,4.0,11.0,88,61.94,,,-99.99,,2013-01-12 03:42:00,
2013-01-11 21:53:00,53.0,50.0,29.79,NNW,338,4.0,9.0,88,61.94,,,-99.99,,2013-01-12 03:53:00,
2013-01-11 22:02:00,53.0,50.0,29.78,SSW,203,4.0,11.0,88,61.94,,,-99.99,,2013-01-12 04:02:00,
2013-01-11 22:12:00,53.0,49.0,29.79,SW,221,4.0,13.0,87,61.94,,,-99.99,,2013-01-12 04:12:00,
2013-01-11 22:22:00,53.0,49.0,29.79,SW,221,4.0,13.0,87,61.94,,,-99.99,,2013-01-12 04:22:00,
2013-01-11 22:32:00,53.0,49.0,29.78,SSW,205,4.0,10.0,86,61.94,,,-99.99,,2013-01-12 04:32:00,
2013-01-11 22:42:00,53.0,49.0,29.78,SSW,205,4.0,10.0,86,61.94,,,-99.99,,2013-01-12 04:42:00,
2013-01-11 22:52:00,53.0,49.0,29.78,SW,232,4.0,10.0,87,61.94,,,-99.99,,2013-01-12 04:52:00,
2013-01-11 23:03:00,53.0,49.0,29.79,SW,236,4.0,9.0,87,61.94,,,-99.99,,2013-01-12 05:03:00,
2013-01-11 23:12:00,53.0,49.0,29.79,SW,236,4.0,9.0,87,61.94,,,-99.99,,2013-01-12 05:12:00,
2013-01-11 23:22:00,53.0,50.0,29.78,West,259,4.0,10.0,88,61.94,,,-99.99,,2013-01-12 05:22:00,
2013-01-11 23:32:00,53.0,49.0,29.78,SW,224,5.0,9.0,87,61.94,,,-99.99,,2013-01-12 05:32:00,
2013-01-11 23:42:00,53.0,49.0,29.78,SW,224,5.0,9.0,87,61.94,,,-99.99,,2013-01-12 05:42:00,
2013-01-11 23:52:00,53.0,49.0,29.78,North,0,3.0,11.0,87,61.94,,,-99.99,,2013-01-12 05:52:00,